Time;durP1;ratioP1;P1;durP2;ratioP2;P2;SDS_P1;SDS_P2;PMS_P1;PMS_P2;Temp;Humidity;BMP_temperature;BMP_pressure;BME280_temperature;BME280_humidity;BME280_pressure;Samples;Min_cycle;Max_cycle;Signal;HPM_P1;HPM_P2
2022/09/14 00:00:25;;;;;;;26.13;14.35;;;;;;;;;;6206635;28;20054;-57
2022/09/14 00:03:46;;;;;;;22.15;10.45;;;;;;;;;;6206171;28;20045;-53
2022/09/14 00:06:48;;;;;;;24.70;10.97;;;;;;;;;;6208149;28;20456;-51
2022/09/14 00:09:50;;;;;;;23.02;10.07;;;;;;;;;;6208406;28;20088;-57
2022/09/14 00:12:51;;;;;;;24.50;10.40;;;;;;;;;;6208043;28;20066;-61
2022/09/14 00:15:52;;;;;;;19.88;9.48;;;;;;;;;;6208788;28;20475;-53
2022/09/14 00:19:04;;;;;;;27.50;12.43;;;;;;;;;;6217085;28;20143;-51
2022/09/14 00:22:05;;;;;;;22.95;9.77;;;;;;;;;;6203392;28;20057;-56
2022/09/14 00:25:06;;;;;;;21.42;10.80;;;;;;;;;;6215861;28;20045;-51
2022/09/14 00:28:07;;;;;;;22.67;9.38;;;;;;;;;;6208113;28;20648;-53
2022/09/14 00:31:08;;;;;;;18.02;9.45;;;;;;;;;;6208555;28;20037;-58
2022/09/14 00:34:13;;;;;;;21.87;9.90;;;;;;;;;;6207434;28;20061;-57
2022/09/14 00:37:13;;;;;;;19.88;9.55;;;;;;;;;;6208629;28;20086;-53
2022/09/14 00:40:14;;;;;;;18.20;9.75;;;;;;;;;;6210522;28;20058;-51
2022/09/14 00:43:15;;;;;;;20.15;9.63;;;;;;;;;;6209852;28;20463;-52
2022/09/14 00:46:15;;;;;;;19.42;8.50;;;;;;;;;;6206907;28;20523;-54
2022/09/14 00:49:24;;;;;;;20.15;9.27;;;;;;;;;;6209842;28;20123;-50
2022/09/14 00:52:28;;;;;;;19.92;10.05;;;;;;;;;;6206995;28;20073;-60
2022/09/14 00:55:29;;;;;;;22.48;9.65;;;;;;;;;;6206303;28;20549;-56
2022/09/14 00:58:29;;;;;;;19.65;10.13;;;;;;;;;;6208165;28;20095;-55
2022/09/14 01:01:30;;;;;;;17.65;8.60;;;;;;;;;;6206697;28;20238;-54
2022/09/14 01:04:31;;;;;;;18.13;9.27;;;;;;;;;;6207639;28;20132;-53
2022/09/14 01:07:59;;;;;;;17.42;8.48;;;;;;;;;;6208104;28;20574;-57
2022/09/14 01:11:18;;;;;;;18.15;9.23;;;;;;;;;;6211515;28;20141;-54
2022/09/14 01:14:40;;;;;;;18.80;8.95;;;;;;;;;;6206199;28;20148;-52
2022/09/14 01:18:26;;;;;;;21.27;9.10;;;;;;;;;;6208043;28;20123;-51
2022/09/14 01:21:31;;;;;;;18.15;8.40;;;;;;;;;;6203916;28;20096;-61
2022/09/14 01:25:06;;;;;;;20.02;8.60;;;;;;;;;;6211177;28;20545;-54
2022/09/14 01:28:19;;;;;;;22.05;8.55;;;;;;;;;;6209781;28;20603;-55
2022/09/14 01:31:55;;;;;;;17.23;8.88;;;;;;;;;;6211651;28;20064;-50
2022/09/14 01:35:00;;;;;;;20.90;8.98;;;;;;;;;;6198834;28;20057;-59
2022/09/14 01:38:12;;;;;;;16.75;8.70;;;;;;;;;;6207760;28;20100;-59
2022/09/14 01:41:19;;;;;;;17.15;8.90;;;;;;;;;;6209502;28;20116;-54
2022/09/14 01:44:36;;;;;;;16.88;8.63;;;;;;;;;;6212726;28;20203;-58
2022/09/14 01:47:49;;;;;;;20.00;10.07;;;;;;;;;;6211719;28;20050;-52
2022/09/14 01:50:53;;;;;;;20.13;9.43;;;;;;;;;;6208991;28;20176;-59
2022/09/14 01:54:00;;;;;;;22.38;9.05;;;;;;;;;;6211438;28;20172;-59
2022/09/14 01:57:34;;;;;;;23.02;9.40;;;;;;;;;;6208972;28;20045;-56
2022/09/14 02:00:38;;;;;;;20.02;9.00;;;;;;;;;;6207151;28;20100;-60
2022/09/14 02:03:45;;;;;;;20.35;9.77;;;;;;;;;;6210253;28;20412;-51
2022/09/14 02:06:47;;;;;;;20.08;9.00;;;;;;;;;;6212103;28;20505;-53
2022/09/14 02:09:48;;;;;;;21.33;8.80;;;;;;;;;;6211639;28;20085;-61
2022/09/14 02:12:50;;;;;;;20.15;9.55;;;;;;;;;;6210006;28;20509;-53
2022/09/14 02:15:51;;;;;;;20.77;9.27;;;;;;;;;;6215957;28;20124;-54
2022/09/14 02:18:52;;;;;;;18.73;8.88;;;;;;;;;;6210619;28;20045;-58
2022/09/14 02:21:53;;;;;;;21.08;10.35;;;;;;;;;;6210372;28;20440;-50
2022/09/14 02:24:54;;;;;;;17.33;9.02;;;;;;;;;;6210546;28;20050;-61
2022/09/14 02:27:54;;;;;;;21.75;9.07;;;;;;;;;;6209680;28;20137;-51
2022/09/14 02:31:06;;;;;;;22.85;9.88;;;;;;;;;;6211177;28;20050;-54
2022/09/14 02:34:31;;;;;;;19.13;9.80;;;;;;;;;;6208481;28;20081;-51
2022/09/14 02:37:38;;;;;;;24.27;9.90;;;;;;;;;;6211670;28;20053;-57
2022/09/14 02:40:56;;;;;;;18.90;9.02;;;;;;;;;;6210444;28;20133;-60
2022/09/14 02:44:38;;;;;;;18.48;9.75;;;;;;;;;;6211751;28;20057;-51
2022/09/14 02:47:54;;;;;;;16.42;8.77;;;;;;;;;;6204548;28;20048;-57
2022/09/14 02:51:19;;;;;;;17.83;9.43;;;;;;;;;;6208369;28;20643;-57
2022/09/14 02:54:25;;;;;;;21.25;9.23;;;;;;;;;;6211971;28;20065;-58
2022/09/14 02:57:26;;;;;;;21.42;9.02;;;;;;;;;;6210506;28;20505;-53
2022/09/14 03:00:28;;;;;;;19.67;9.05;;;;;;;;;;6210156;28;20107;-61
2022/09/14 03:03:29;;;;;;;17.90;9.13;;;;;;;;;;6208194;28;20508;-60
2022/09/14 03:06:30;;;;;;;18.00;8.73;;;;;;;;;;6208503;28;20089;-51
2022/09/14 03:09:31;;;;;;;17.80;8.70;;;;;;;;;;6210304;28;20077;-52
2022/09/14 03:12:31;;;;;;;18.92;8.85;;;;;;;;;;6209609;28;20034;-51
2022/09/14 03:15:32;;;;;;;17.27;8.98;;;;;;;;;;6209750;28;20057;-51
2022/09/14 03:18:34;;;;;;;19.50;9.45;;;;;;;;;;6209495;28;20411;-49
2022/09/14 03:21:36;;;;;;;;;;;;;;;;;;6208874;28;20596;-53
2022/09/14 03:24:37;;;;;;;;;;;;;;;;;;6208698;28;20032;-52
2022/09/14 03:27:38;;;;;;;20.80;9.75;;;;;;;;;;6209270;28;19921;-57
2022/09/14 03:30:39;;;;;;;21.27;9.73;;;;;;;;;;6208091;28;20484;-60
2022/09/14 03:33:40;;;;;;;22.40;10.20;;;;;;;;;;6209396;28;20045;-51
2022/09/14 03:36:40;;;;;;;23.67;11.20;;;;;;;;;;6208732;28;20182;-50
2022/09/14 03:39:41;;;;;;;23.88;10.65;;;;;;;;;;6207804;28;20041;-60
2022/09/14 03:42:47;;;;;;;21.15;11.05;;;;;;;;;;6209665;28;20045;-50
2022/09/14 03:45:47;;;;;;;24.77;10.25;;;;;;;;;;6208821;28;20068;-59
2022/09/14 03:48:48;;;;;;;18.42;9.95;;;;;;;;;;6209948;28;20485;-54
2022/09/14 03:51:49;;;;;;;20.63;9.75;;;;;;;;;;6206927;28;20195;-50
2022/09/14 03:54:50;;;;;;;16.92;9.40;;;;;;;;;;6208036;28;20046;-51
2022/09/14 03:57:54;;;;;;;27.50;9.88;;;;;;;;;;6208994;28;20398;-50
2022/09/14 04:00:56;;;;;;;22.10;9.88;;;;;;;;;;6208136;28;20132;-50
2022/09/14 04:03:56;;;;;;;28.05;9.82;;;;;;;;;;6204984;28;20507;-53
2022/09/14 04:06:57;;;;;;;20.55;9.13;;;;;;;;;;6208313;28;20069;-59
2022/09/14 04:09:57;;;;;;;26.45;10.35;;;;;;;;;;6207786;28;20064;-60
2022/09/14 04:12:58;;;;;;;19.92;8.75;;;;;;;;;;6211841;28;20645;-50
2022/09/14 04:16:00;;;;;;;22.92;10.30;;;;;;;;;;6213819;28;20482;-51
2022/09/14 04:19:00;;;;;;;20.33;9.63;;;;;;;;;;6215457;28;20070;-61
2022/09/14 04:22:01;;;;;;;17.38;9.48;;;;;;;;;;6215827;28;20458;-50
2022/09/14 04:25:02;;;;;;;20.77;9.27;;;;;;;;;;6214193;28;20052;-50
2022/09/14 04:28:03;;;;;;;19.83;9.60;;;;;;;;;;6213018;28;20056;-60
2022/09/14 04:31:04;;;;;;;24.33;10.50;;;;;;;;;;6211977;28;20492;-57
2022/09/14 04:34:05;;;;;;;17.75;8.80;;;;;;;;;;6217225;28;20137;-50
2022/09/14 04:37:05;;;;;;;19.80;9.37;;;;;;;;;;6208031;28;20072;-56
2022/09/14 04:40:06;;;;;;;21.75;10.23;;;;;;;;;;6208925;28;20466;-52
2022/09/14 04:43:07;;;;;;;17.65;9.48;;;;;;;;;;6211758;28;20062;-57
2022/09/14 04:46:14;;;;;;;19.05;9.77;;;;;;;;;;6211846;28;20046;-55
2022/09/14 04:49:17;;;;;;;18.45;9.43;;;;;;;;;;6213166;28;20049;-51
2022/09/14 04:52:18;;;;;;;18.30;9.15;;;;;;;;;;6214245;28;20073;-55
2022/09/14 04:55:18;;;;;;;16.50;9.07;;;;;;;;;;6225820;28;20082;-54
2022/09/14 04:58:19;;;;;;;19.90;9.65;;;;;;;;;;6220425;28;20133;-50
2022/09/14 05:01:22;;;;;;;19.42;9.35;;;;;;;;;;6220868;28;20503;-57
2022/09/14 05:04:23;;;;;;;22.00;9.82;;;;;;;;;;6214708;28;20038;-57
2022/09/14 05:07:23;;;;;;;19.15;9.50;;;;;;;;;;6211800;28;20072;-53
2022/09/14 05:10:24;;;;;;;21.08;10.48;;;;;;;;;;6211382;28;20406;-60
2022/09/14 05:13:24;;;;;;;22.67;9.88;;;;;;;;;;6211404;28;20572;-58
2022/09/14 05:16:36;;;;;;;55.55;29.92;;;;;;;;;;6212346;28;20348;-56
2022/09/14 05:19:37;;;;;;;43.45;24.70;;;;;;;;;;6216796;28;20049;-60
2022/09/14 05:22:38;;;;;;;40.03;19.65;;;;;;;;;;6212328;28;20080;-54
2022/09/14 05:25:38;;;;;;;24.27;12.25;;;;;;;;;;6219648;28;20073;-60
2022/09/14 05:28:40;;;;;;;23.13;11.50;;;;;;;;;;6215080;28;20426;-56
2022/09/14 05:31:41;;;;;;;;;;;;;;;;;;6212972;28;20084;-53
2022/09/14 05:34:41;;;;;;;91.38;39.45;;;;;;;;;;6213116;28;19921;-60
2022/09/14 05:37:42;;;;;;;45.08;22.20;;;;;;;;;;6213491;28;20397;-51
2022/09/14 05:40:43;;;;;;;30.35;13.43;;;;;;;;;;6211543;28;20108;-52
2022/09/14 05:43:43;;;;;;;25.80;11.48;;;;;;;;;;6214140;28;20493;-58
2022/09/14 05:46:44;;;;;;;21.10;10.18;;;;;;;;;;6212425;28;20050;-51
2022/09/14 05:49:45;;;;;;;24.35;9.95;;;;;;;;;;6212929;28;20095;-53
2022/09/14 05:52:47;;;;;;;22.67;10.18;;;;;;;;;;6212813;28;20042;-52
2022/09/14 05:55:48;;;;;;;18.50;9.02;;;;;;;;;;6213004;28;20643;-50
2022/09/14 05:58:49;;;;;;;22.98;10.00;;;;;;;;;;6213541;28;20049;-53
2022/09/14 06:01:50;;;;;;;21.65;9.18;;;;;;;;;;6211613;28;20042;-53
2022/09/14 06:04:51;;;;;;;19.23;9.43;;;;;;;;;;6202209;28;20062;-52
2022/09/14 06:07:52;;;;;;;20.52;9.38;;;;;;;;;;6218130;28;20100;-54
2022/09/14 06:10:52;;;;;;;18.65;9.70;;;;;;;;;;6217100;28;20068;-52
2022/09/14 06:13:54;;;;;;;22.83;10.57;;;;;;;;;;6219613;28;20494;-54
2022/09/14 06:16:55;;;;;;;21.40;9.82;;;;;;;;;;6219166;28;20076;-55
2022/09/14 06:19:56;;;;;;;22.95;10.75;;;;;;;;;;6218832;28;20046;-55
2022/09/14 06:22:56;;;;;;;19.95;10.38;;;;;;;;;;6218849;28;20057;-54
2022/09/14 06:26:03;;;;;;;17.38;10.45;;;;;;;;;;6217031;28;20096;-55
2022/09/14 06:29:03;;;;;;;18.50;10.73;;;;;;;;;;6216336;28;20420;-51
2022/09/14 06:32:04;;;;;;;19.15;11.00;;;;;;;;;;6213119;28;20050;-53
2022/09/14 06:35:05;;;;;;;18.90;10.48;;;;;;;;;;6214140;28;20053;-54
2022/09/14 06:38:06;;;;;;;23.75;10.10;;;;;;;;;;6217871;28;20448;-55
2022/09/14 06:41:09;;;;;;;22.88;10.48;;;;;;;;;;6215166;28;20501;-54
2022/09/14 06:44:10;;;;;;;21.65;11.18;;;;;;;;;;6216433;28;20151;-59
2022/09/14 06:47:10;;;;;;;20.88;11.18;;;;;;;;;;6217830;28;20353;-56
2022/09/14 06:50:11;;;;;;;17.98;9.98;;;;;;;;;;6216838;28;20177;-53
2022/09/14 06:53:11;;;;;;;25.13;10.20;;;;;;;;;;6217255;28;20096;-54
2022/09/14 06:56:13;;;;;;;20.17;9.77;;;;;;;;;;6217906;28;20070;-52
2022/09/14 06:59:15;;;;;;;23.00;10.10;;;;;;;;;;6217464;28;20042;-56
2022/09/14 07:02:16;;;;;;;20.15;10.35;;;;;;;;;;6216475;28;20606;-54
2022/09/14 07:05:19;;;;;;;20.48;10.23;;;;;;;;;;6217751;28;20100;-61
2022/09/14 07:08:20;;;;;;;26.73;12.30;;;;;;;;;;6217839;28;20075;-56
2022/09/14 07:11:26;;;;;;;27.27;11.93;;;;;;;;;;6216128;28;20060;-60
2022/09/14 07:14:26;;;;;;;21.67;11.30;;;;;;;;;;6217448;28;20145;-57
2022/09/14 07:17:27;;;;;;;27.02;11.95;;;;;;;;;;6217302;28;20049;-58
2022/09/14 07:20:27;;;;;;;20.77;10.88;;;;;;;;;;6216204;28;20554;-59
2022/09/14 07:23:28;;;;;;;26.40;11.45;;;;;;;;;;6217054;28;20489;-57
2022/09/14 07:26:38;;;;;;;20.75;10.68;;;;;;;;;;6217227;28;20053;-57
2022/09/14 07:29:39;;;;;;;25.55;11.00;;;;;;;;;;6216872;28;20060;-56
2022/09/14 07:32:39;;;;;;;23.83;10.82;;;;;;;;;;6215871;28;20482;-54
2022/09/14 07:35:40;;;;;;;20.40;10.10;;;;;;;;;;6216962;28;20417;-54
2022/09/14 07:38:40;;;;;;;22.43;11.03;;;;;;;;;;6211723;28;20042;-54
2022/09/14 07:41:42;;;;;;;24.77;12.67;;;;;;;;;;6215555;28;20092;-55
2022/09/14 07:44:42;;;;;;;28.17;13.52;;;;;;;;;;6216893;28;20053;-54
2022/09/14 07:47:43;;;;;;;23.67;10.37;;;;;;;;;;6211970;28;20565;-55
2022/09/14 07:50:43;;;;;;;26.95;11.75;;;;;;;;;;6210000;28;20048;-51
2022/09/14 07:53:44;;;;;;;29.52;13.30;;;;;;;;;;6214932;28;20038;-55
2022/09/14 07:56:45;;;;;;;22.23;10.80;;;;;;;;;;6216650;28;20037;-53
2022/09/14 07:59:45;;;;;;;22.98;10.75;;;;;;;;;;6214383;28;20382;-53
2022/09/14 08:02:51;;;;;;;29.55;11.57;;;;;;;;;;6208731;28;20065;-54
2022/09/14 08:06:04;;;;;;;24.35;11.35;;;;;;;;;;6208277;28;20042;-53
2022/09/14 08:09:07;;;;;;;22.05;11.05;;;;;;;;;;6213653;28;20081;-53
2022/09/14 08:12:08;;;;;;;25.98;11.27;;;;;;;;;;6208255;28;20504;-57
2022/09/14 08:15:09;;;;;;;26.57;11.90;;;;;;;;;;6209865;28;20049;-54
2022/09/14 08:18:09;;;;;;;25.60;12.93;;;;;;;;;;6215914;28;20053;-54
2022/09/14 08:21:13;;;;;;;24.05;12.40;;;;;;;;;;6214620;28;20049;-50
2022/09/14 08:24:19;;;;;;;25.92;11.30;;;;;;;;;;6216012;28;20128;-52
2022/09/14 08:27:20;;;;;;;22.65;11.48;;;;;;;;;;6216190;28;20474;-57
2022/09/14 08:30:21;;;;;;;25.85;12.93;;;;;;;;;;6215167;28;20060;-51
2022/09/14 08:33:21;;;;;;;25.42;10.63;;;;;;;;;;6214488;28;20502;-52
2022/09/14 08:36:24;;;;;;;23.00;10.73;;;;;;;;;;6215855;28;20042;-51
2022/09/14 08:39:24;;;;;;;23.13;10.75;;;;;;;;;;6214162;28;20085;-53
2022/09/14 08:42:25;;;;;;;22.83;10.77;;;;;;;;;;6207957;28;20050;-52
2022/09/14 08:45:27;;;;;;;23.55;10.23;;;;;;;;;;6209561;28;20100;-56
2022/09/14 08:48:32;;;;;;;21.48;10.88;;;;;;;;;;6210266;28;20050;-53
2022/09/14 08:51:32;;;;;;;20.52;10.13;;;;;;;;;;6212196;28;20081;-52
2022/09/14 08:54:33;;;;;;;19.60;10.33;;;;;;;;;;6213976;28;20452;-58
2022/09/14 08:57:59;;;;;;;20.90;10.18;;;;;;;;;;6216302;28;20077;-52
2022/09/14 09:01:15;;;;;;;20.90;10.32;;;;;;;;;;6209816;28;20053;-51
2022/09/14 09:04:48;;;;;;;19.52;9.85;;;;;;;;;;6210188;28;20152;-55
2022/09/14 09:08:10;;;;;;;18.88;10.20;;;;;;;;;;6210551;28;20035;-54
2022/09/14 09:11:17;;;;;;;;;;;;;;;;;;6211285;28;20108;-51
2022/09/14 09:14:28;;;;;;;19.92;9.65;;;;;;;;;;6215360;28;19921;-57
2022/09/14 09:17:35;;;;;;;18.97;9.80;;;;;;;;;;6213907;28;20077;-60
2022/09/14 09:20:45;;;;;;;19.23;9.70;;;;;;;;;;6214940;28;20049;-54
2022/09/14 09:23:45;;;;;;;21.80;10.10;;;;;;;;;;6210197;28;20099;-54
2022/09/14 09:26:46;;;;;;;21.03;11.03;;;;;;;;;;6208565;28;20481;-57
2022/09/14 09:29:47;;;;;;;24.13;10.10;;;;;;;;;;6208245;28;20042;-58
2022/09/14 09:32:47;;;;;;;23.60;10.77;;;;;;;;;;6207929;28;20053;-54
2022/09/14 09:35:52;;;;;;;22.53;9.97;;;;;;;;;;6207356;28;20411;-54
2022/09/14 09:38:53;;;;;;;21.60;11.32;;;;;;;;;;6207215;28;20549;-53
2022/09/14 09:42:02;;;;;;;25.80;10.60;;;;;;;;;;6208143;28;20523;-57
2022/09/14 09:45:04;;;;;;;25.30;10.85;;;;;;;;;;6208331;28;20483;-61
2022/09/14 09:48:09;;;;;;;26.15;10.40;;;;;;;;;;6210524;28;20042;-52
2022/09/14 09:51:29;;;;;;;20.13;10.77;;;;;;;;;;6210771;28;20065;-58
2022/09/14 09:54:31;;;;;;;17.70;9.38;;;;;;;;;;6212176;28;20157;-53
2022/09/14 09:57:36;;;;;;;18.60;10.23;;;;;;;;;;6211754;28;20053;-52
2022/09/14 10:00:36;;;;;;;22.20;10.88;;;;;;;;;;6208826;28;20085;-53
2022/09/14 10:03:39;;;;;;;20.87;10.73;;;;;;;;;;6212160;28;20448;-54
2022/09/14 10:06:52;;;;;;;22.70;11.20;;;;;;;;;;6217941;28;20141;-53
2022/09/14 10:10:09;;;;;;;19.17;11.07;;;;;;;;;;6218529;28;20045;-56
2022/09/14 10:13:21;;;;;;;27.25;11.38;;;;;;;;;;6216748;28;20046;-55
2022/09/14 10:16:24;;;;;;;19.92;10.10;;;;;;;;;;6217667;28;20038;-53
2022/09/14 10:19:28;;;;;;;22.65;11.70;;;;;;;;;;6218219;28;20050;-60
2022/09/14 10:22:36;;;;;;;24.80;11.48;;;;;;;;;;6217251;28;20523;-53
2022/09/14 10:25:37;;;;;;;19.15;10.75;;;;;;;;;;6216752;28;20066;-58
2022/09/14 10:28:45;;;;;;;19.77;10.40;;;;;;;;;;6218007;28;20050;-57
2022/09/14 10:31:48;;;;;;;20.38;10.70;;;;;;;;;;6214904;28;20432;-51
2022/09/14 10:34:50;;;;;;;22.88;11.30;;;;;;;;;;6210562;28;20545;-55
2022/09/14 10:38:04;;;;;;;21.10;11.63;;;;;;;;;;6211599;28;20515;-52
2022/09/14 10:41:34;;;;;;;21.10;11.07;;;;;;;;;;6194452;28;20065;-59
2022/09/14 10:44:56;;;;;;;21.02;10.25;;;;;;;;;;6192736;28;20141;-53
2022/09/14 10:48:12;;;;;;;20.45;10.35;;;;;;;;;;6208659;28;20760;-58
2022/09/14 10:51:44;;;;;;;19.48;10.15;;;;;;;;;;6208458;28;20632;-58
2022/09/14 10:55:11;;;;;;;17.45;9.70;;;;;;;;;;6211060;28;20085;-54
2022/09/14 10:58:35;;;;;;;19.17;8.93;;;;;;;;;;6210044;28;20054;-57
2022/09/14 11:02:11;;;;;;;15.30;9.05;;;;;;;;;;6211294;28;20078;-60
2022/09/14 11:05:20;;;;;;;16.17;9.43;;;;;;;;;;6110388;28;20094;-53
2022/09/14 11:08:38;;;;;;;19.17;9.82;;;;;;;;;;6209618;28;20492;-59
2022/09/14 11:12:03;;;;;;;21.35;9.50;;;;;;;;;;6210204;28;20085;-55
2022/09/14 11:15:33;;;;;;;17.30;9.70;;;;;;;;;;6210672;28;20819;-59
2022/09/14 11:18:58;;;;;;;18.65;9.30;;;;;;;;;;6207808;28;20618;-51
2022/09/14 11:22:04;;;;;;;18.55;10.05;;;;;;;;;;6208833;28;20597;-53
2022/09/14 11:25:29;;;;;;;20.15;9.50;;;;;;;;;;6215054;28;20144;-53
2022/09/14 11:28:38;;;;;;;16.75;9.27;;;;;;;;;;6216306;28;20081;-56
2022/09/14 11:31:50;;;;;;;17.05;8.98;;;;;;;;;;6211356;28;20074;-52
2022/09/14 11:34:56;;;;;;;18.07;9.10;;;;;;;;;;6214373;28;20489;-59
2022/09/14 11:38:01;;;;;;;19.58;9.23;;;;;;;;;;6214803;28;20810;-57
2022/09/14 11:41:20;;;;;;;17.83;9.75;;;;;;;;;;6209556;28;20145;-54
2022/09/14 11:44:30;;;;;;;17.80;8.68;;;;;;;;;;6208598;28;20152;-56
2022/09/14 11:47:39;;;;;;;14.98;8.50;;;;;;;;;;6209171;28;20050;-57
2022/09/14 11:50:44;;;;;;;18.50;9.50;;;;;;;;;;6208717;28;20081;-58
2022/09/14 11:53:45;;;;;;;17.30;9.95;;;;;;;;;;6209888;28;20073;-51
2022/09/14 11:56:54;;;;;;;18.80;9.63;;;;;;;;;;6206621;28;20057;-59
2022/09/14 12:00:00;;;;;;;19.75;9.52;;;;;;;;;;6209514;28;20049;-58
2022/09/14 12:03:19;;;;;;;23.45;11.02;;;;;;;;;;6214204;28;20038;-59
2022/09/14 12:06:28;;;;;;;19.63;9.95;;;;;;;;;;6214444;28;20100;-60
2022/09/14 12:09:30;;;;;;;19.75;10.68;;;;;;;;;;6213207;28;20044;-53
2022/09/14 12:12:33;;;;;;;23.65;11.38;;;;;;;;;;6215227;28;20049;-61
2022/09/14 12:15:35;;;;;;;22.17;10.88;;;;;;;;;;6215679;28;20120;-51
2022/09/14 12:18:38;;;;;;;23.70;10.57;;;;;;;;;;6214005;28;20096;-51
2022/09/14 12:21:39;;;;;;;22.73;10.60;;;;;;;;;;6215209;28;20149;-52
2022/09/14 12:24:40;;;;;;;21.43;10.57;;;;;;;;;;6215645;28;20595;-57
2022/09/14 12:27:42;;;;;;;23.60;11.80;;;;;;;;;;6214552;28;20433;-52
2022/09/14 12:30:43;;;;;;;24.00;12.48;;;;;;;;;;6214549;28;20056;-58
2022/09/14 12:34:22;;;;;;;26.90;12.20;;;;;;;;;;6215504;28;20445;-54
2022/09/14 12:37:29;;;;;;;28.27;12.02;;;;;;;;;;6214551;28;20053;-51
2022/09/14 12:40:35;;;;;;;23.02;12.10;;;;;;;;;;6212287;28;20500;-54
2022/09/14 12:43:36;;;;;;;24.45;12.20;;;;;;;;;;6208822;28;20640;-57
2022/09/14 12:46:38;;;;;;;26.00;12.07;;;;;;;;;;6208472;28;20057;-57
2022/09/14 12:49:38;;;;;;;25.90;13.23;;;;;;;;;;6207751;28;20568;-53
2022/09/14 12:52:52;;;;;;;28.17;13.73;;;;;;;;;;6207305;28;20041;-55
2022/09/14 12:56:02;;;;;;;27.08;12.73;;;;;;;;;;6207402;28;20073;-60
2022/09/14 12:59:29;;;;;;;24.10;12.05;;;;;;;;;;6209727;28;20050;-60
2022/09/14 13:03:04;;;;;;;18.58;8.90;;;;;;;;;;6208395;28;20148;-54
2022/09/14 13:06:11;;;;;;;18.38;8.95;;;;;;;;;;6187036;28;20072;-61
2022/09/14 13:09:20;;;;;;;21.75;9.63;;;;;;;;;;6199408;28;20048;-54
2022/09/14 13:12:37;;;;;;;18.10;9.52;;;;;;;;;;6199420;28;20141;-57
2022/09/14 13:15:49;;;;;;;17.98;8.75;;;;;;;;;;6194313;28;20047;-54
2022/09/14 13:19:00;;;;;;;19.90;8.77;;;;;;;;;;6195600;28;20477;-57
2022/09/14 13:22:01;;;;;;;16.20;8.35;;;;;;;;;;6202332;28;20041;-52
2022/09/14 13:25:03;;;;;;;17.52;8.98;;;;;;;;;;6200233;28;20600;-59
2022/09/14 13:28:06;;;;;;;18.85;8.70;;;;;;;;;;6202083;28;20038;-50
2022/09/14 13:31:13;;;;;;;16.08;7.85;;;;;;;;;;6203305;28;20128;-53
2022/09/14 13:34:21;;;;;;;17.40;8.95;;;;;;;;;;6201574;28;20052;-49
2022/09/14 13:37:23;;;;;;;16.60;8.80;;;;;;;;;;6200492;28;20046;-55
2022/09/14 13:40:28;;;;;;;19.00;9.40;;;;;;;;;;6201271;28;20050;-52
2022/09/14 13:43:28;;;;;;;20.55;8.57;;;;;;;;;;6204086;28;20042;-52
2022/09/14 13:46:29;;;;;;;17.77;9.43;;;;;;;;;;6200734;28;20097;-53
2022/09/14 13:49:30;;;;;;;16.48;9.10;;;;;;;;;;6201981;28;20057;-52
2022/09/14 13:52:35;;;;;;;18.63;8.90;;;;;;;;;;6201838;28;20405;-56
2022/09/14 13:55:35;;;;;;;16.40;8.43;;;;;;;;;;6200082;28;20135;-57
2022/09/14 13:58:36;;;;;;;16.45;9.18;;;;;;;;;;6201444;28;20046;-52
2022/09/14 14:01:38;;;;;;;17.43;8.50;;;;;;;;;;6201250;28;20053;-56
2022/09/14 14:04:38;;;;;;;;;;;;;;;;;;6201142;28;20042;-54
2022/09/14 14:07:44;;;;;;;15.77;7.55;;;;;;;;;;6202406;28;19925;-52
2022/09/14 14:10:48;;;;;;;16.15;8.25;;;;;;;;;;6201280;28;20547;-58
2022/09/14 14:13:48;;;;;;;17.27;7.93;;;;;;;;;;6200528;28;20060;-57
2022/09/14 14:17:26;;;;;;;14.95;8.20;;;;;;;;;;6196978;28;20058;-56
2022/09/14 14:20:37;;;;;;;18.88;9.02;;;;;;;;;;6197860;28;20635;-57
2022/09/14 14:23:38;;;;;;;23.55;8.95;;;;;;;;;;6194745;28;20061;-58
2022/09/14 14:26:46;;;;;;;15.68;8.25;;;;;;;;;;6194814;28;20042;-57
2022/09/14 14:29:46;;;;;;;17.33;8.35;;;;;;;;;;6195064;28;20135;-52
2022/09/14 14:32:51;;;;;;;17.77;8.55;;;;;;;;;;6195139;28;20085;-58
2022/09/14 14:35:53;;;;;;;16.27;7.55;;;;;;;;;;6194678;28;20061;-49
2022/09/14 14:38:55;;;;;;;18.27;8.52;;;;;;;;;;6195098;28;20127;-53
2022/09/14 14:41:56;;;;;;;16.77;8.45;;;;;;;;;;6196458;28;20512;-55
2022/09/14 14:44:56;;;;;;;17.37;8.83;;;;;;;;;;6191818;28;20046;-53
2022/09/14 14:47:58;;;;;;;20.23;8.48;;;;;;;;;;6197155;28;20925;-57
2022/09/14 14:50:58;;;;;;;19.52;9.27;;;;;;;;;;6196871;28;20631;-54
2022/09/14 14:54:00;;;;;;;18.63;8.60;;;;;;;;;;6196769;28;20045;-50
2022/09/14 14:57:01;;;;;;;18.10;8.38;;;;;;;;;;6195059;28;20042;-50
2022/09/14 15:00:02;;;;;;;16.33;8.60;;;;;;;;;;6197019;28;20112;-51
2022/09/14 15:03:03;;;;;;;;;;;;;;;;;;6194124;28;20061;-51
2022/09/14 15:06:13;;;;;;;17.25;8.50;;;;;;;;;;6195163;28;20000;-55
2022/09/14 15:09:17;;;;;;;21.02;9.20;;;;;;;;;;6196060;28;20675;-50
2022/09/14 15:12:17;;;;;;;18.02;8.88;;;;;;;;;;6193882;28;20041;-61
2022/09/14 15:15:22;;;;;;;20.45;9.82;;;;;;;;;;6196096;28;20042;-59
2022/09/14 15:18:23;;;;;;;18.85;10.05;;;;;;;;;;6196468;28;20050;-57
2022/09/14 15:21:24;;;;;;;24.02;10.93;;;;;;;;;;6199418;28;20100;-56
2022/09/14 15:24:24;;;;;;;19.27;9.50;;;;;;;;;;6193638;28;20054;-58
2022/09/14 15:27:25;;;;;;;19.55;10.40;;;;;;;;;;6191475;28;20042;-58
2022/09/14 15:30:25;;;;;;;24.42;10.40;;;;;;;;;;6192150;28;20046;-56
2022/09/14 15:33:26;;;;;;;19.63;9.73;;;;;;;;;;6199282;28;20050;-59
2022/09/14 15:36:49;;;;;;;23.38;10.55;;;;;;;;;;6188215;28;20097;-54
2022/09/14 15:39:50;;;;;;;22.00;10.63;;;;;;;;;;6192870;28;20053;-54
2022/09/14 15:42:51;;;;;;;20.73;11.75;;;;;;;;;;6195464;28;20050;-54
2022/09/14 15:45:52;;;;;;;20.67;10.98;;;;;;;;;;6193978;28;20104;-53
2022/09/14 15:48:52;;;;;;;22.43;11.43;;;;;;;;;;6196244;28;20455;-57
2022/09/14 15:51:55;;;;;;;23.93;10.97;;;;;;;;;;6196048;28;20535;-58
2022/09/14 15:54:55;;;;;;;24.40;12.13;;;;;;;;;;6199347;28;20054;-56
2022/09/14 15:57:56;;;;;;;26.60;11.93;;;;;;;;;;6200815;28;20539;-55
2022/09/14 16:00:56;;;;;;;30.30;12.10;;;;;;;;;;6200821;28;20050;-49
2022/09/14 16:03:59;;;;;;;27.70;12.90;;;;;;;;;;6199206;28;20092;-53
2022/09/14 16:06:59;;;;;;;24.50;12.55;;;;;;;;;;6192814;28;20042;-60
2022/09/14 16:10:00;;;;;;;23.98;12.60;;;;;;;;;;6200392;28;20042;-49
2022/09/14 16:13:01;;;;;;;28.00;12.75;;;;;;;;;;6200410;28;20077;-51
2022/09/14 16:16:09;;;;;;;24.10;13.27;;;;;;;;;;6196760;28;20520;-57
2022/09/14 16:19:13;;;;;;;24.83;12.48;;;;;;;;;;6197116;28;20129;-60
2022/09/14 16:22:14;;;;;;;25.20;12.50;;;;;;;;;;6191608;28;20128;-60
2022/09/14 16:25:15;;;;;;;28.83;13.38;;;;;;;;;;6192010;28;20200;-57
2022/09/14 16:28:16;;;;;;;26.73;13.43;;;;;;;;;;6192669;28;20539;-56
2022/09/14 16:31:26;;;;;;;25.48;13.43;;;;;;;;;;6196800;28;20216;-53
2022/09/14 16:34:28;;;;;;;27.27;13.50;;;;;;;;;;6194283;28;20492;-67
2022/09/14 16:37:28;;;;;;;;;;;;;;;;;;6197899;28;20088;-61
2022/09/14 16:40:30;;;;;;;25.17;13.35;;;;;;;;;;6199908;28;20327;-57
2022/09/14 16:43:32;;;;;;;24.48;13.48;;;;;;;;;;6200719;28;20517;-60
2022/09/14 16:46:33;;;;;;;30.50;14.60;;;;;;;;;;6196028;28;20053;-59
2022/09/14 16:49:36;;;;;;;29.17;14.20;;;;;;;;;;6196064;28;20141;-54
2022/09/14 16:52:36;;;;;;;29.13;14.57;;;;;;;;;;6196260;28;20050;-59
2022/09/14 16:55:37;;;;;;;29.30;13.88;;;;;;;;;;6194513;28;20081;-50
2022/09/14 16:58:38;;;;;;;30.43;15.33;;;;;;;;;;6198195;28;20049;-49
2022/09/14 17:01:41;;;;;;;29.87;14.80;;;;;;;;;;6200665;28;20049;-60
2022/09/14 17:04:42;;;;;;;29.45;15.45;;;;;;;;;;6200194;28;21561;-57
2022/09/14 17:07:42;;;;;;;28.85;14.77;;;;;;;;;;6201879;28;20041;-53
2022/09/14 17:10:45;;;;;;;30.27;15.38;;;;;;;;;;6201927;28;20062;-50
2022/09/14 17:13:46;;;;;;;34.47;16.13;;;;;;;;;;6201888;28;20046;-59
2022/09/14 17:16:48;;;;;;;31.33;14.68;;;;;;;;;;6195397;28;20555;-54
2022/09/14 17:19:49;;;;;;;31.73;17.15;;;;;;;;;;6198611;28;20060;-58
2022/09/14 17:22:50;;;;;;;31.88;15.68;;;;;;;;;;6198533;28;20045;-55
2022/09/14 17:25:51;;;;;;;36.30;18.37;;;;;;;;;;6195434;28;20060;-52
2022/09/14 17:28:54;;;;;;;32.53;16.23;;;;;;;;;;6199741;28;20180;-55
2022/09/14 17:31:55;;;;;;;29.45;15.65;;;;;;;;;;6201590;28;20077;-57
2022/09/14 17:34:56;;;;;;;36.65;15.88;;;;;;;;;;6201475;28;20524;-57
2022/09/14 17:37:56;;;;;;;30.48;15.30;;;;;;;;;;6199833;28;20049;-58
2022/09/14 17:41:19;;;;;;;32.90;15.65;;;;;;;;;;6201158;28;20133;-50
2022/09/14 17:44:20;;;;;;;27.15;14.20;;;;;;;;;;6202541;28;20054;-50
2022/09/14 17:47:21;;;;;;;26.60;14.57;;;;;;;;;;6197672;28;20104;-55
2022/09/14 17:50:22;;;;;;;27.95;14.30;;;;;;;;;;6202487;28;20057;-53
2022/09/14 17:53:23;;;;;;;27.10;14.13;;;;;;;;;;6203334;28;20500;-51
2022/09/14 17:56:26;;;;;;;25.25;13.40;;;;;;;;;;6197617;28;20074;-56
2022/09/14 17:59:27;;;;;;;22.45;11.77;;;;;;;;;;6201258;28;20058;-53
2022/09/14 18:02:28;;;;;;;21.45;11.40;;;;;;;;;;6202988;28;20489;-60
2022/09/14 18:05:29;;;;;;;21.83;11.65;;;;;;;;;;6199215;28;20050;-58
2022/09/14 18:08:29;;;;;;;21.83;11.40;;;;;;;;;;6202958;28;20593;-48